sensor_id;sensor_type;location;lat;lon;timestamp;temperature;humidity
64012;DHT22;50211;52.768;12.124;2023-04-15T00:01:04;7.20;99.90
64012;DHT22;50211;52.768;12.124;2023-04-15T00:03:30;7.20;99.90
64012;DHT22;50211;52.768;12.124;2023-04-15T00:05:57;7.20;99.90
64012;DHT22;50211;52.768;12.124;2023-04-15T00:08:22;7.20;99.90
64012;DHT22;50211;52.768;12.124;2023-04-15T00:10:48;7.20;99.90
64012;DHT22;50211;52.768;12.124;2023-04-15T00:13:14;7.20;99.90
64012;DHT22;50211;52.768;12.124;2023-04-15T00:15:40;7.20;99.90
64012;DHT22;50211;52.768;12.124;2023-04-15T00:18:05;7.20;99.90
64012;DHT22;50211;52.768;12.124;2023-04-15T00:20:33;7.20;99.90
64012;DHT22;50211;52.768;12.124;2023-04-15T00:22:58;7.20;99.90
64012;DHT22;50211;52.768;12.124;2023-04-15T00:25:24;7.20;99.90
64012;DHT22;50211;52.768;12.124;2023-04-15T00:27:50;7.20;99.90
64012;DHT22;50211;52.768;12.124;2023-04-15T00:30:16;7.20;99.90
64012;DHT22;50211;52.768;12.124;2023-04-15T00:32:41;7.20;99.90
64012;DHT22;50211;52.768;12.124;2023-04-15T00:35:07;7.20;99.90
64012;DHT22;50211;52.768;12.124;2023-04-15T00:37:33;7.20;99.90
64012;DHT22;50211;52.768;12.124;2023-04-15T00:39:59;7.20;99.90
64012;DHT22;50211;52.768;12.124;2023-04-15T00:42:25;7.30;99.90
64012;DHT22;50211;52.768;12.124;2023-04-15T00:44:52;7.20;99.90
64012;DHT22;50211;52.768;12.124;2023-04-15T00:47:18;7.30;99.90
64012;DHT22;50211;52.768;12.124;2023-04-15T00:49:44;7.40;99.90
64012;DHT22;50211;52.768;12.124;2023-04-15T00:52:10;7.30;99.90
64012;DHT22;50211;52.768;12.124;2023-04-15T00:54:35;7.30;99.90
64012;DHT22;50211;52.768;12.124;2023-04-15T00:57:04;7.30;99.90
64012;DHT22;50211;52.768;12.124;2023-04-15T00:59:30;7.30;99.90
64012;DHT22;50211;52.768;12.124;2023-04-15T01:01:57;7.30;99.90
64012;DHT22;50211;52.768;12.124;2023-04-15T01:04:23;7.30;99.90
64012;DHT22;50211;52.768;12.124;2023-04-15T01:06:49;7.30;99.90
64012;DHT22;50211;52.768;12.124;2023-04-15T01:09:14;7.30;99.90
64012;DHT22;50211;52.768;12.124;2023-04-15T01:11:40;7.40;99.90
64012;DHT22;50211;52.768;12.124;2023-04-15T01:14:06;7.30;99.90
64012;DHT22;50211;52.768;12.124;2023-04-15T01:16:33;7.30;99.90
64012;DHT22;50211;52.768;12.124;2023-04-15T01:18:59;7.30;99.90
64012;DHT22;50211;52.768;12.124;2023-04-15T01:21:25;7.30;99.90
64012;DHT22;50211;52.768;12.124;2023-04-15T01:23:51;7.40;99.90
64012;DHT22;50211;52.768;12.124;2023-04-15T01:26:17;7.50;99.90
64012;DHT22;50211;52.768;12.124;2023-04-15T01:28:43;7.50;99.90
64012;DHT22;50211;52.768;12.124;2023-04-15T01:31:13;7.40;99.90
64012;DHT22;50211;52.768;12.124;2023-04-15T01:33:41;7.50;99.90
64012;DHT22;50211;52.768;12.124;2023-04-15T01:36:07;7.40;99.90
64012;DHT22;50211;52.768;12.124;2023-04-15T01:38:34;7.50;99.90
64012;DHT22;50211;52.768;12.124;2023-04-15T01:41:01;7.50;99.90
64012;DHT22;50211;52.768;12.124;2023-04-15T01:43:26;7.50;99.90
64012;DHT22;50211;52.768;12.124;2023-04-15T01:45:52;7.50;99.90
64012;DHT22;50211;52.768;12.124;2023-04-15T01:48:18;7.50;99.90
64012;DHT22;50211;52.768;12.124;2023-04-15T01:50:44;7.50;99.90
64012;DHT22;50211;52.768;12.124;2023-04-15T01:53:09;7.60;99.90
64012;DHT22;50211;52.768;12.124;2023-04-15T01:55:35;7.50;99.90
64012;DHT22;50211;52.768;12.124;2023-04-15T01:58:01;7.50;99.90
64012;DHT22;50211;52.768;12.124;2023-04-15T02:00:27;7.60;99.90
64012;DHT22;50211;52.768;12.124;2023-04-15T02:02:52;7.60;99.90
64012;DHT22;50211;52.768;12.124;2023-04-15T02:05:18;7.60;99.90
64012;DHT22;50211;52.768;12.124;2023-04-15T02:07:44;7.60;99.90
64012;DHT22;50211;52.768;12.124;2023-04-15T02:10:10;7.60;99.90
64012;DHT22;50211;52.768;12.124;2023-04-15T02:12:38;7.60;99.90
64012;DHT22;50211;52.768;12.124;2023-04-15T02:15:04;7.60;99.90
64012;DHT22;50211;52.768;12.124;2023-04-15T02:17:29;7.60;99.90
64012;DHT22;50211;52.768;12.124;2023-04-15T02:19:55;7.60;99.90
64012;DHT22;50211;52.768;12.124;2023-04-15T02:22:21;7.60;99.90
64012;DHT22;50211;52.768;12.124;2023-04-15T02:24:47;7.60;99.90
64012;DHT22;50211;52.768;12.124;2023-04-15T02:27:16;7.60;99.90
64012;DHT22;50211;52.768;12.124;2023-04-15T02:29:43;7.80;99.90
64012;DHT22;50211;52.768;12.124;2023-04-15T02:32:09;7.70;99.90
64012;DHT22;50211;52.768;12.124;2023-04-15T02:34:36;7.70;99.90
64012;DHT22;50211;52.768;12.124;2023-04-15T02:37:03;7.70;99.90
64012;DHT22;50211;52.768;12.124;2023-04-15T02:39:29;7.70;99.90
64012;DHT22;50211;52.768;12.124;2023-04-15T02:41:55;7.70;99.90
64012;DHT22;50211;52.768;12.124;2023-04-15T02:44:23;7.70;99.90
64012;DHT22;50211;52.768;12.124;2023-04-15T02:46:49;7.70;99.90
64012;DHT22;50211;52.768;12.124;2023-04-15T02:49:17;7.70;99.90
64012;DHT22;50211;52.768;12.124;2023-04-15T02:51:42;7.70;99.90
64012;DHT22;50211;52.768;12.124;2023-04-15T02:54:08;7.80;99.90
64012;DHT22;50211;52.768;12.124;2023-04-15T02:56:33;7.80;99.90
64012;DHT22;50211;52.768;12.124;2023-04-15T02:58:59;7.80;99.90
64012;DHT22;50211;52.768;12.124;2023-04-15T03:01:25;7.70;99.90
64012;DHT22;50211;52.768;12.124;2023-04-15T03:03:51;7.80;99.90
64012;DHT22;50211;52.768;12.124;2023-04-15T03:06:16;7.80;99.90
64012;DHT22;50211;52.768;12.124;2023-04-15T03:08:42;7.80;99.90
64012;DHT22;50211;52.768;12.124;2023-04-15T03:11:07;7.80;99.90
64012;DHT22;50211;52.768;12.124;2023-04-15T03:13:33;7.80;99.90
64012;DHT22;50211;52.768;12.124;2023-04-15T03:15:58;7.80;99.90
64012;DHT22;50211;52.768;12.124;2023-04-15T03:18:24;7.80;99.90
64012;DHT22;50211;52.768;12.124;2023-04-15T03:20:49;7.80;99.90
64012;DHT22;50211;52.768;12.124;2023-04-15T03:23:15;7.90;99.90
64012;DHT22;50211;52.768;12.124;2023-04-15T03:25:41;7.80;99.90
64012;DHT22;50211;52.768;12.124;2023-04-15T03:28:06;7.90;99.90
64012;DHT22;50211;52.768;12.124;2023-04-15T03:30:32;7.90;99.90
64012;DHT22;50211;52.768;12.124;2023-04-15T03:32:57;7.80;99.90
64012;DHT22;50211;52.768;12.124;2023-04-15T03:35:23;7.90;99.90
64012;DHT22;50211;52.768;12.124;2023-04-15T03:37:48;7.90;99.90
64012;DHT22;50211;52.768;12.124;2023-04-15T03:40:14;7.90;99.90
64012;DHT22;50211;52.768;12.124;2023-04-15T03:42:40;7.90;99.90
64012;DHT22;50211;52.768;12.124;2023-04-15T03:45:06;7.90;99.90
64012;DHT22;50211;52.768;12.124;2023-04-15T03:47:32;7.90;99.90
64012;DHT22;50211;52.768;12.124;2023-04-15T03:49:57;7.90;99.90
64012;DHT22;50211;52.768;12.124;2023-04-15T03:52:23;7.90;99.90
64012;DHT22;50211;52.768;12.124;2023-04-15T03:54:48;7.90;99.90
64012;DHT22;50211;52.768;12.124;2023-04-15T03:57:14;8.00;99.90
64012;DHT22;50211;52.768;12.124;2023-04-15T03:59:39;7.90;99.90
64012;DHT22;50211;52.768;12.124;2023-04-15T04:02:05;7.90;99.90
64012;DHT22;50211;52.768;12.124;2023-04-15T04:04:30;8.00;99.90
64012;DHT22;50211;52.768;12.124;2023-04-15T04:06:56;8.00;99.90
64012;DHT22;50211;52.768;12.124;2023-04-15T04:09:22;8.00;99.90
64012;DHT22;50211;52.768;12.124;2023-04-15T04:11:47;8.00;99.90
64012;DHT22;50211;52.768;12.124;2023-04-15T04:14:13;8.00;99.90
64012;DHT22;50211;52.768;12.124;2023-04-15T04:16:38;8.00;99.90
64012;DHT22;50211;52.768;12.124;2023-04-15T04:19:04;8.00;99.90
64012;DHT22;50211;52.768;12.124;2023-04-15T04:21:29;8.00;99.90
64012;DHT22;50211;52.768;12.124;2023-04-15T04:23:55;8.10;99.90
64012;DHT22;50211;52.768;12.124;2023-04-15T04:26:21;8.10;99.90
64012;DHT22;50211;52.768;12.124;2023-04-15T04:28:47;8.00;99.90
64012;DHT22;50211;52.768;12.124;2023-04-15T04:31:12;8.10;99.90
64012;DHT22;50211;52.768;12.124;2023-04-15T04:33:38;8.10;99.90
64012;DHT22;50211;52.768;12.124;2023-04-15T04:36:04;8.10;99.90
64012;DHT22;50211;52.768;12.124;2023-04-15T04:38:29;8.10;99.90
64012;DHT22;50211;52.768;12.124;2023-04-15T04:40:55;8.10;99.90
64012;DHT22;50211;52.768;12.124;2023-04-15T04:43:20;8.10;99.90
64012;DHT22;50211;52.768;12.124;2023-04-15T04:45:46;8.10;99.90
64012;DHT22;50211;52.768;12.124;2023-04-15T04:48:12;8.20;99.90
64012;DHT22;50211;52.768;12.124;2023-04-15T04:50:38;8.20;99.90
64012;DHT22;50211;52.768;12.124;2023-04-15T04:53:04;8.20;99.90
64012;DHT22;50211;52.768;12.124;2023-04-15T04:55:29;8.20;99.90
64012;DHT22;50211;52.768;12.124;2023-04-15T04:57:56;8.20;99.90
64012;DHT22;50211;52.768;12.124;2023-04-15T05:00:21;8.20;99.90
64012;DHT22;50211;52.768;12.124;2023-04-15T05:02:47;8.20;99.90
64012;DHT22;50211;52.768;12.124;2023-04-15T05:05:12;8.20;99.90
64012;DHT22;50211;52.768;12.124;2023-04-15T05:07:38;8.30;99.90
64012;DHT22;50211;52.768;12.124;2023-04-15T05:10:04;8.30;99.90
64012;DHT22;50211;52.768;12.124;2023-04-15T05:12:30;8.30;99.90
64012;DHT22;50211;52.768;12.124;2023-04-15T05:14:56;8.30;99.90
64012;DHT22;50211;52.768;12.124;2023-04-15T05:17:22;8.30;99.90
64012;DHT22;50211;52.768;12.124;2023-04-15T05:19:47;8.30;99.90
64012;DHT22;50211;52.768;12.124;2023-04-15T05:22:13;8.40;99.90
64012;DHT22;50211;52.768;12.124;2023-04-15T05:24:38;8.40;99.90
64012;DHT22;50211;52.768;12.124;2023-04-15T05:27:04;8.50;99.90
64012;DHT22;50211;52.768;12.124;2023-04-15T05:29:29;8.50;99.90
64012;DHT22;50211;52.768;12.124;2023-04-15T05:31:55;8.50;99.90
64012;DHT22;50211;52.768;12.124;2023-04-15T05:34:21;8.50;99.90
64012;DHT22;50211;52.768;12.124;2023-04-15T05:36:47;8.50;99.90
64012;DHT22;50211;52.768;12.124;2023-04-15T05:39:12;8.60;99.90
64012;DHT22;50211;52.768;12.124;2023-04-15T05:41:38;8.60;99.90
64012;DHT22;50211;52.768;12.124;2023-04-15T05:44:03;8.60;99.90
64012;DHT22;50211;52.768;12.124;2023-04-15T05:46:29;8.60;99.90
64012;DHT22;50211;52.768;12.124;2023-04-15T05:48:55;8.60;99.90
64012;DHT22;50211;52.768;12.124;2023-04-15T05:51:20;8.70;99.90
64012;DHT22;50211;52.768;12.124;2023-04-15T05:53:46;8.70;99.90
64012;DHT22;50211;52.768;12.124;2023-04-15T05:56:11;8.70;99.90
64012;DHT22;50211;52.768;12.124;2023-04-15T05:58:37;8.80;99.90
64012;DHT22;50211;52.768;12.124;2023-04-15T06:01:03;8.80;99.90
64012;DHT22;50211;52.768;12.124;2023-04-15T06:03:28;8.90;99.90
64012;DHT22;50211;52.768;12.124;2023-04-15T06:05:54;9.10;99.90
64012;DHT22;50211;52.768;12.124;2023-04-15T06:08:20;9.10;99.90
64012;DHT22;50211;52.768;12.124;2023-04-15T06:10:46;9.30;99.90
64012;DHT22;50211;52.768;12.124;2023-04-15T06:13:11;9.30;99.90
64012;DHT22;50211;52.768;12.124;2023-04-15T06:15:38;9.40;99.90
64012;DHT22;50211;52.768;12.124;2023-04-15T06:18:03;9.60;99.90
64012;DHT22;50211;52.768;12.124;2023-04-15T06:20:29;9.60;99.90
64012;DHT22;50211;52.768;12.124;2023-04-15T06:22:55;9.70;99.90
64012;DHT22;50211;52.768;12.124;2023-04-15T06:25:21;9.60;99.90
64012;DHT22;50211;52.768;12.124;2023-04-15T06:27:47;9.70;99.90
64012;DHT22;50211;52.768;12.124;2023-04-15T06:30:13;9.60;99.90
64012;DHT22;50211;52.768;12.124;2023-04-15T06:32:38;9.70;99.90
64012;DHT22;50211;52.768;12.124;2023-04-15T06:35:04;9.70;99.90
64012;DHT22;50211;52.768;12.124;2023-04-15T06:37:29;9.70;99.90
64012;DHT22;50211;52.768;12.124;2023-04-15T06:39:55;9.60;99.90
64012;DHT22;50211;52.768;12.124;2023-04-15T06:42:21;9.70;99.90
64012;DHT22;50211;52.768;12.124;2023-04-15T06:44:47;9.70;99.90
64012;DHT22;50211;52.768;12.124;2023-04-15T06:47:12;9.80;99.90
64012;DHT22;50211;52.768;12.124;2023-04-15T06:49:39;9.90;99.90
64012;DHT22;50211;52.768;12.124;2023-04-15T06:52:05;10.10;99.90
64012;DHT22;50211;52.768;12.124;2023-04-15T06:54:30;10.20;99.90
64012;DHT22;50211;52.768;12.124;2023-04-15T06:56:56;10.20;99.90
64012;DHT22;50211;52.768;12.124;2023-04-15T06:59:21;10.20;99.90
64012;DHT22;50211;52.768;12.124;2023-04-15T07:01:47;10.20;99.90
64012;DHT22;50211;52.768;12.124;2023-04-15T07:04:12;10.30;99.90
64012;DHT22;50211;52.768;12.124;2023-04-15T07:06:38;10.30;99.90
64012;DHT22;50211;52.768;12.124;2023-04-15T07:09:03;10.30;99.90
64012;DHT22;50211;52.768;12.124;2023-04-15T07:11:29;10.30;99.90
64012;DHT22;50211;52.768;12.124;2023-04-15T07:13:56;10.30;99.90
64012;DHT22;50211;52.768;12.124;2023-04-15T07:16:21;10.30;99.90
64012;DHT22;50211;52.768;12.124;2023-04-15T07:18:47;10.40;99.90
64012;DHT22;50211;52.768;12.124;2023-04-15T07:21:12;10.60;99.90
64012;DHT22;50211;52.768;12.124;2023-04-15T07:23:38;10.70;99.90
64012;DHT22;50211;52.768;12.124;2023-04-15T07:26:03;10.80;99.90
64012;DHT22;50211;52.768;12.124;2023-04-15T07:28:29;10.90;99.90
64012;DHT22;50211;52.768;12.124;2023-04-15T07:30:55;11.00;99.90
64012;DHT22;50211;52.768;12.124;2023-04-15T07:33:22;11.00;99.90
64012;DHT22;50211;52.768;12.124;2023-04-15T07:35:47;11.00;99.90
64012;DHT22;50211;52.768;12.124;2023-04-15T07:38:13;11.00;99.90
64012;DHT22;50211;52.768;12.124;2023-04-15T07:40:39;11.00;99.90
64012;DHT22;50211;52.768;12.124;2023-04-15T07:43:04;11.10;99.90
64012;DHT22;50211;52.768;12.124;2023-04-15T07:45:31;11.20;99.90
64012;DHT22;50211;52.768;12.124;2023-04-15T07:47:56;11.30;99.90
64012;DHT22;50211;52.768;12.124;2023-04-15T07:50:22;11.40;99.90
64012;DHT22;50211;52.768;12.124;2023-04-15T07:52:49;11.50;99.90
64012;DHT22;50211;52.768;12.124;2023-04-15T07:55:14;11.60;99.90
64012;DHT22;50211;52.768;12.124;2023-04-15T07:57:43;11.60;99.90
64012;DHT22;50211;52.768;12.124;2023-04-15T08:00:09;11.80;99.90
64012;DHT22;50211;52.768;12.124;2023-04-15T08:02:35;11.80;99.90
64012;DHT22;50211;52.768;12.124;2023-04-15T08:05:02;12.00;99.90
64012;DHT22;50211;52.768;12.124;2023-04-15T08:07:28;12.20;99.90
64012;DHT22;50211;52.768;12.124;2023-04-15T08:09:54;12.10;99.90
64012;DHT22;50211;52.768;12.124;2023-04-15T08:12:20;12.20;99.90
64012;DHT22;50211;52.768;12.124;2023-04-15T08:14:46;12.30;99.90
64012;DHT22;50211;52.768;12.124;2023-04-15T08:17:12;12.30;99.90
64012;DHT22;50211;52.768;12.124;2023-04-15T08:19:37;12.50;99.90
64012;DHT22;50211;52.768;12.124;2023-04-15T08:22:03;12.70;99.90
64012;DHT22;50211;52.768;12.124;2023-04-15T08:24:30;12.50;99.90
64012;DHT22;50211;52.768;12.124;2023-04-15T08:26:55;12.50;99.90
64012;DHT22;50211;52.768;12.124;2023-04-15T08:29:22;12.60;99.90
64012;DHT22;50211;52.768;12.124;2023-04-15T08:31:47;12.50;99.90
64012;DHT22;50211;52.768;12.124;2023-04-15T08:34:13;12.40;99.90
64012;DHT22;50211;52.768;12.124;2023-04-15T08:36:39;12.20;99.90
64012;DHT22;50211;52.768;12.124;2023-04-15T08:39:05;12.00;99.90
64012;DHT22;50211;52.768;12.124;2023-04-15T08:41:40;12.00;99.90
64012;DHT22;50211;52.768;12.124;2023-04-15T08:44:08;11.80;99.90
64012;DHT22;50211;52.768;12.124;2023-04-15T08:46:33;11.70;99.90
64012;DHT22;50211;52.768;12.124;2023-04-15T08:48:59;11.60;99.90
64012;DHT22;50211;52.768;12.124;2023-04-15T08:51:27;11.60;99.90
64012;DHT22;50211;52.768;12.124;2023-04-15T08:53:53;11.60;99.90
64012;DHT22;50211;52.768;12.124;2023-04-15T08:56:25;11.60;99.90
64012;DHT22;50211;52.768;12.124;2023-04-15T08:58:53;11.50;99.90
64012;DHT22;50211;52.768;12.124;2023-04-15T09:01:19;11.40;99.90
64012;DHT22;50211;52.768;12.124;2023-04-15T09:03:47;11.40;99.90
64012;DHT22;50211;52.768;12.124;2023-04-15T09:06:16;11.30;99.90
64012;DHT22;50211;52.768;12.124;2023-04-15T09:08:41;11.20;99.90
64012;DHT22;50211;52.768;12.124;2023-04-15T09:11:07;11.20;99.90
64012;DHT22;50211;52.768;12.124;2023-04-15T09:13:32;11.30;99.90
64012;DHT22;50211;52.768;12.124;2023-04-15T09:16:01;11.30;99.90
64012;DHT22;50211;52.768;12.124;2023-04-15T09:18:32;11.30;99.90
64012;DHT22;50211;52.768;12.124;2023-04-15T09:21:05;11.50;99.90
64012;DHT22;50211;52.768;12.124;2023-04-15T09:23:33;11.70;99.90
64012;DHT22;50211;52.768;12.124;2023-04-15T09:26:00;11.90;99.90
64012;DHT22;50211;52.768;12.124;2023-04-15T09:28:27;12.10;99.90
64012;DHT22;50211;52.768;12.124;2023-04-15T09:31:00;12.20;99.90
64012;DHT22;50211;52.768;12.124;2023-04-15T09:33:27;12.30;99.90
64012;DHT22;50211;52.768;12.124;2023-04-15T09:36:01;12.30;99.90
64012;DHT22;50211;52.768;12.124;2023-04-15T09:38:28;12.20;99.90
64012;DHT22;50211;52.768;12.124;2023-04-15T09:40:54;12.20;99.90
64012;DHT22;50211;52.768;12.124;2023-04-15T09:43:20;12.10;99.90
64012;DHT22;50211;52.768;12.124;2023-04-15T09:45:50;12.20;99.90
64012;DHT22;50211;52.768;12.124;2023-04-15T09:48:21;12.20;99.90
64012;DHT22;50211;52.768;12.124;2023-04-15T09:50:48;12.20;99.90
64012;DHT22;50211;52.768;12.124;2023-04-15T09:53:21;12.20;99.90
64012;DHT22;50211;52.768;12.124;2023-04-15T09:55:58;12.30;99.90
64012;DHT22;50211;52.768;12.124;2023-04-15T09:58:26;12.20;99.90
64012;DHT22;50211;52.768;12.124;2023-04-15T10:00:54;12.30;99.90
64012;DHT22;50211;52.768;12.124;2023-04-15T10:03:34;12.20;99.90
64012;DHT22;50211;52.768;12.124;2023-04-15T10:06:01;12.20;99.90
64012;DHT22;50211;52.768;12.124;2023-04-15T10:08:30;12.20;99.90
64012;DHT22;50211;52.768;12.124;2023-04-15T10:10:57;12.20;99.90
64012;DHT22;50211;52.768;12.124;2023-04-15T10:13:24;12.10;99.90
64012;DHT22;50211;52.768;12.124;2023-04-15T10:15:56;12.00;99.90
64012;DHT22;50211;52.768;12.124;2023-04-15T10:18:25;12.00;99.90
64012;DHT22;50211;52.768;12.124;2023-04-15T10:20:51;11.90;99.90
64012;DHT22;50211;52.768;12.124;2023-04-15T10:23:17;11.90;99.90
64012;DHT22;50211;52.768;12.124;2023-04-15T10:25:45;11.80;99.90
64012;DHT22;50211;52.768;12.124;2023-04-15T10:28:11;11.90;99.90
64012;DHT22;50211;52.768;12.124;2023-04-15T10:30:37;12.00;99.90
64012;DHT22;50211;52.768;12.124;2023-04-15T10:33:04;11.90;99.90
64012;DHT22;50211;52.768;12.124;2023-04-15T10:35:31;12.00;99.90
64012;DHT22;50211;52.768;12.124;2023-04-15T10:37:58;12.00;99.90
64012;DHT22;50211;52.768;12.124;2023-04-15T10:40:31;12.00;99.90
64012;DHT22;50211;52.768;12.124;2023-04-15T10:42:58;12.00;99.90
64012;DHT22;50211;52.768;12.124;2023-04-15T10:45:32;12.00;99.90
64012;DHT22;50211;52.768;12.124;2023-04-15T10:48:00;12.00;99.90
64012;DHT22;50211;52.768;12.124;2023-04-15T10:50:27;12.00;99.90
64012;DHT22;50211;52.768;12.124;2023-04-15T10:52:55;11.90;99.90
64012;DHT22;50211;52.768;12.124;2023-04-15T10:55:23;11.90;99.90
64012;DHT22;50211;52.768;12.124;2023-04-15T10:57:58;11.90;99.90
64012;DHT22;50211;52.768;12.124;2023-04-15T11:00:27;11.90;99.90
64012;DHT22;50211;52.768;12.124;2023-04-15T11:02:55;11.90;99.90
64012;DHT22;50211;52.768;12.124;2023-04-15T11:05:47;11.90;99.90
64012;DHT22;50211;52.768;12.124;2023-04-15T11:08:09;12.00;99.90
64012;DHT22;50211;52.768;12.124;2023-04-15T11:10:54;11.90;99.90
64012;DHT22;50211;52.768;12.124;2023-04-15T11:13:21;11.90;99.90
64012;DHT22;50211;52.768;12.124;2023-04-15T11:15:48;11.80;99.90
64012;DHT22;50211;52.768;12.124;2023-04-15T11:18:21;11.90;99.90
64012;DHT22;50211;52.768;12.124;2023-04-15T11:20:49;11.90;99.90
64012;DHT22;50211;52.768;12.124;2023-04-15T11:23:18;11.80;99.90
64012;DHT22;50211;52.768;12.124;2023-04-15T11:25:44;11.80;99.90
64012;DHT22;50211;52.768;12.124;2023-04-15T11:28:11;11.80;99.90
64012;DHT22;50211;52.768;12.124;2023-04-15T11:30:38;11.80;99.90
64012;DHT22;50211;52.768;12.124;2023-04-15T11:33:08;11.80;99.90
64012;DHT22;50211;52.768;12.124;2023-04-15T11:35:34;11.70;99.90
64012;DHT22;50211;52.768;12.124;2023-04-15T11:38:04;11.80;99.90
64012;DHT22;50211;52.768;12.124;2023-04-15T11:40:30;11.70;99.90
64012;DHT22;50211;52.768;12.124;2023-04-15T11:43:08;11.80;99.90
64012;DHT22;50211;52.768;12.124;2023-04-15T11:45:35;11.80;99.90
64012;DHT22;50211;52.768;12.124;2023-04-15T11:48:05;11.90;99.90
64012;DHT22;50211;52.768;12.124;2023-04-15T11:50:31;11.90;99.90
64012;DHT22;50211;52.768;12.124;2023-04-15T11:52:58;11.90;99.90
64012;DHT22;50211;52.768;12.124;2023-04-15T11:55:25;11.90;99.90
64012;DHT22;50211;52.768;12.124;2023-04-15T11:58:17;11.90;99.90
64012;DHT22;50211;52.768;12.124;2023-04-15T12:00:54;11.90;99.90
64012;DHT22;50211;52.768;12.124;2023-04-15T12:06:17;11.90;99.90
64012;DHT22;50211;52.768;12.124;2023-04-15T12:16:30;11.90;99.90
64012;DHT22;50211;52.768;12.124;2023-04-15T12:18:57;12.00;99.90
64012;DHT22;50211;52.768;12.124;2023-04-15T12:21:25;12.00;99.90
64012;DHT22;50211;52.768;12.124;2023-04-15T12:23:55;12.00;99.90
64012;DHT22;50211;52.768;12.124;2023-04-15T12:26:29;12.00;99.90
64012;DHT22;50211;52.768;12.124;2023-04-15T12:28:55;12.00;99.90
64012;DHT22;50211;52.768;12.124;2023-04-15T12:31:21;12.00;99.90
64012;DHT22;50211;52.768;12.124;2023-04-15T12:33:47;12.00;99.90
64012;DHT22;50211;52.768;12.124;2023-04-15T12:36:14;12.00;99.90
64012;DHT22;50211;52.768;12.124;2023-04-15T12:38:39;12.00;99.90
64012;DHT22;50211;52.768;12.124;2023-04-15T12:41:05;12.00;99.90
64012;DHT22;50211;52.768;12.124;2023-04-15T12:43:31;12.00;99.90
64012;DHT22;50211;52.768;12.124;2023-04-15T12:45:56;12.00;99.90
64012;DHT22;50211;52.768;12.124;2023-04-15T12:48:22;12.00;99.90
64012;DHT22;50211;52.768;12.124;2023-04-15T12:50:47;12.00;99.90
64012;DHT22;50211;52.768;12.124;2023-04-15T12:53:13;12.10;99.90
64012;DHT22;50211;52.768;12.124;2023-04-15T12:55:38;12.10;99.90
64012;DHT22;50211;52.768;12.124;2023-04-15T12:58:04;12.10;99.90
64012;DHT22;50211;52.768;12.124;2023-04-15T13:00:29;12.10;99.90
64012;DHT22;50211;52.768;12.124;2023-04-15T13:02:57;12.00;99.90
64012;DHT22;50211;52.768;12.124;2023-04-15T13:05:23;12.00;99.90
64012;DHT22;50211;52.768;12.124;2023-04-15T13:07:48;12.00;99.90
64012;DHT22;50211;52.768;12.124;2023-04-15T13:10:14;12.00;99.90
64012;DHT22;50211;52.768;12.124;2023-04-15T13:12:40;12.00;99.90
64012;DHT22;50211;52.768;12.124;2023-04-15T13:15:06;12.00;99.90
64012;DHT22;50211;52.768;12.124;2023-04-15T13:17:33;12.00;99.90
64012;DHT22;50211;52.768;12.124;2023-04-15T13:19:59;11.90;99.90
64012;DHT22;50211;52.768;12.124;2023-04-15T13:22:24;11.90;99.90
64012;DHT22;50211;52.768;12.124;2023-04-15T13:24:50;11.80;99.90
64012;DHT22;50211;52.768;12.124;2023-04-15T13:27:16;11.80;99.90
64012;DHT22;50211;52.768;12.124;2023-04-15T13:29:41;11.80;99.90
64012;DHT22;50211;52.768;12.124;2023-04-15T13:32:07;11.80;99.90
64012;DHT22;50211;52.768;12.124;2023-04-15T13:34:32;11.80;99.90
64012;DHT22;50211;52.768;12.124;2023-04-15T13:36:58;11.80;99.90
64012;DHT22;50211;52.768;12.124;2023-04-15T13:39:23;11.70;99.90
64012;DHT22;50211;52.768;12.124;2023-04-15T13:41:49;11.70;99.90
64012;DHT22;50211;52.768;12.124;2023-04-15T13:44:14;11.70;99.90
64012;DHT22;50211;52.768;12.124;2023-04-15T13:46:40;11.60;99.90
64012;DHT22;50211;52.768;12.124;2023-04-15T13:49:08;11.70;99.90
64012;DHT22;50211;52.768;12.124;2023-04-15T13:51:34;11.70;99.90
64012;DHT22;50211;52.768;12.124;2023-04-15T13:54:01;11.60;99.90
64012;DHT22;50211;52.768;12.124;2023-04-15T13:56:27;11.60;99.90
64012;DHT22;50211;52.768;12.124;2023-04-15T13:58:53;11.60;99.90
64012;DHT22;50211;52.768;12.124;2023-04-15T14:01:23;11.60;99.90
64012;DHT22;50211;52.768;12.124;2023-04-15T14:03:49;11.60;99.90
64012;DHT22;50211;52.768;12.124;2023-04-15T14:06:14;11.50;99.90
64012;DHT22;50211;52.768;12.124;2023-04-15T14:08:40;11.60;99.90
64012;DHT22;50211;52.768;12.124;2023-04-15T14:11:05;11.60;99.90
64012;DHT22;50211;52.768;12.124;2023-04-15T14:13:31;11.60;99.90
64012;DHT22;50211;52.768;12.124;2023-04-15T14:15:56;11.50;99.90
64012;DHT22;50211;52.768;12.124;2023-04-15T14:18:22;11.50;99.90
64012;DHT22;50211;52.768;12.124;2023-04-15T14:20:47;11.50;99.90
64012;DHT22;50211;52.768;12.124;2023-04-15T14:23:13;11.50;99.90
64012;DHT22;50211;52.768;12.124;2023-04-15T14:25:38;11.50;99.90
64012;DHT22;50211;52.768;12.124;2023-04-15T14:28:04;11.50;99.90
64012;DHT22;50211;52.768;12.124;2023-04-15T14:30:29;11.40;99.90
64012;DHT22;50211;52.768;12.124;2023-04-15T14:32:55;11.40;99.90
64012;DHT22;50211;52.768;12.124;2023-04-15T14:35:20;11.40;99.90
64012;DHT22;50211;52.768;12.124;2023-04-15T14:37:46;11.40;99.90
64012;DHT22;50211;52.768;12.124;2023-04-15T14:40:11;11.40;99.90
64012;DHT22;50211;52.768;12.124;2023-04-15T14:42:37;11.40;99.90
64012;DHT22;50211;52.768;12.124;2023-04-15T14:45:03;11.40;99.90
64012;DHT22;50211;52.768;12.124;2023-04-15T14:47:28;11.40;99.90
64012;DHT22;50211;52.768;12.124;2023-04-15T14:49:54;11.40;99.90
64012;DHT22;50211;52.768;12.124;2023-04-15T14:52:19;11.40;99.90
64012;DHT22;50211;52.768;12.124;2023-04-15T14:54:45;11.50;99.90
64012;DHT22;50211;52.768;12.124;2023-04-15T14:57:10;11.40;99.90
64012;DHT22;50211;52.768;12.124;2023-04-15T14:59:36;11.40;99.90
64012;DHT22;50211;52.768;12.124;2023-04-15T15:02:01;11.40;99.90
64012;DHT22;50211;52.768;12.124;2023-04-15T15:04:28;11.40;99.90
64012;DHT22;50211;52.768;12.124;2023-04-15T15:06:53;11.40;99.90
64012;DHT22;50211;52.768;12.124;2023-04-15T15:09:19;11.40;99.90
64012;DHT22;50211;52.768;12.124;2023-04-15T15:11:48;11.40;99.90
64012;DHT22;50211;52.768;12.124;2023-04-15T15:14:14;11.40;99.90
64012;DHT22;50211;52.768;12.124;2023-04-15T15:16:39;11.30;99.90
64012;DHT22;50211;52.768;12.124;2023-04-15T15:19:05;11.30;99.90
64012;DHT22;50211;52.768;12.124;2023-04-15T15:21:30;11.30;99.90
64012;DHT22;50211;52.768;12.124;2023-04-15T15:23:56;11.30;99.90
64012;DHT22;50211;52.768;12.124;2023-04-15T15:26:22;11.30;99.90
64012;DHT22;50211;52.768;12.124;2023-04-15T15:28:47;11.30;99.90